New Providence, NJ

08:55 PM EST on Februarie 27, 2015 (GMT -0500)
Murray Hill | Change Station
CLOSE
Current Station
Personal Weather Stations
Location: Murray Hill, NJ
Elevation: 518 ft
Nearby Weather Stations

Elev 518 ft 40.69 °N, 74.39 °W | Updated 24 minutes ago

Oop
Oop
18.8 °F
Feels Like 19 °F
N
0.0
Wind Veranderlik Wind from SO
Gusts 0.0 mph

Vandag
High -- | Low -- °F
--% Chance of Precip.
Yesterday
High -- | Low -- °F
Precip. -- in
6:35 AM 5:46 PM
Waxing Gibbous, 73% visible
Druk 30.57 in
Sigbaarheid 10.0 myle
Wolke Oop
Wind afkoel 19 °F
Dou-punt 1 °F
Humiditeit 39%
Rainfall 0.00 in
Snow Depth Not available.
UV 0 out of 12
Pollen .50 out of 12
Air Quality Not available.
Flu Activity Not available.
METAR KMMU 280145Z 34004KT 10SM SKC M07/M17 A3057

More Conditions Fewer Conditions

Druk 30.57 in
Sigbaarheid 10.0 myle
Wolke Oop
Wind afkoel 19 °F
Dou-punt 1 °F
Humiditeit 39%
Rainfall 0.00 in
Snow Depth Not available.
UV 0 out of 12
Pollen .50 out of 12
Air Quality Not available.
Flu Activity Not available.
METAR KMMU 280145Z 34004KT 10SM SKC M07/M17 A3057

More Conditions Fewer Conditions

10-Day Weather Forecast

Almanac

Astronomy

Feb. 27, 2015 Rise Set
Ware Tyd
Civil Twilight
Nautical Twilight
Astronomical Twilight
Maan
Length Of Visible Light
Length of Day
Tomorrow will be .
, % of the Moon is Illuminated

Today's Extremes

State Highs State Lows

Community

WunderPhotos

Upload Photos

1,800,924 photos uploaded!

WunderBlogs® & News

Nearby

Air Quality

  Air Quality AQ Index Pollutant
Not available.

Snow Depth

Station Depth Elevation

Earthquake Activity

Stad Distance Mag. Time & Date
Minimum magnitude displayed is 2.5.

Coastal Water Temperatures

Plek Temperatuur

Nearby Weather Stations